Time;durP1;ratioP1;P1;durP2;ratioP2;P2;SDS_P1;SDS_P2;PMS_P1;PMS_P2;Temp;Humidity;BMP_temperature;BMP_pressure;BME280_temperature;BME280_humidity;BME280_pressure;Samples;Min_cycle;Max_cycle;Signal;HPM_P1;HPM_P2
2022/01/20 00:04:26;;;;;;;20.77;12.30;;;2.50;99.90;;;;;;5035378;28;20220;-70
2022/01/20 00:20:41;;;;;;;21.20;12.27;;;2.40;99.90;;;;;;5048152;28;20611;-70
2022/01/20 00:26:51;;;;;;;21.30;12.10;;;2.50;99.90;;;;;;5041849;28;20210;-70
2022/01/20 00:29:26;;;;;;;21.10;11.90;;;2.40;99.90;;;;;;5052578;28;20675;-70
2022/01/20 00:32:09;;;;;;;19.07;12.20;;;2.50;99.90;;;;;;5053658;28;20662;-69
2022/01/20 00:37:29;;;;;;;18.90;11.50;;;2.50;99.90;;;;;;5030935;28;20202;-70
2022/01/20 00:39:58;;;;;;;19.57;11.97;;;2.50;99.90;;;;;;5051693;28;20205;-70
2022/01/20 00:42:25;;;;;;;20.37;12.07;;;2.50;99.90;;;;;;5053022;28;20216;-70
2022/01/20 00:44:53;;;;;;;20.57;12.53;;;2.50;99.90;;;;;;5053194;28;20687;-69
2022/01/20 00:47:20;;;;;;;15.47;11.37;;;2.50;99.90;;;;;;5053052;28;20213;-70
2022/01/20 00:49:47;;;;;;;20.10;12.60;;;2.50;99.90;;;;;;5050865;28;20240;-71
2022/01/20 00:52:15;;;;;;;20.47;11.83;;;2.60;99.90;;;;;;5052438;28;20206;-70
2022/01/20 00:54:42;;;;;;;19.93;11.40;;;2.60;99.90;;;;;;5052828;28;20220;-69
2022/01/20 00:57:11;;;;;;;19.90;11.90;;;2.60;99.90;;;;;;5053042;28;20218;-70
2022/01/20 00:59:38;;;;;;;21.63;11.90;;;2.60;99.90;;;;;;5049628;28;20241;-72
2022/01/20 01:02:08;;;;;;;18.27;11.77;;;2.60;99.90;;;;;;5047089;28;20208;-70
2022/01/20 01:04:35;;;;;;;18.73;11.73;;;2.60;99.90;;;;;;5052888;28;20206;-70
2022/01/20 01:09:48;;;;;;;17.67;11.97;;;2.60;99.90;;;;;;5046985;28;20245;-70
2022/01/20 01:12:24;;;;;;;19.73;12.40;;;2.70;99.90;;;;;;5052418;28;20738;-69
2022/01/20 01:14:52;;;;;;;20.50;11.97;;;2.70;99.90;;;;;;5053209;28;20237;-70
2022/01/20 01:20:15;;;;;;;20.10;11.00;;;2.70;99.90;;;;;;5052017;28;20197;-69
2022/01/20 01:22:42;;;;;;;19.27;11.07;;;2.70;99.90;;;;;;5052790;28;20693;-70
2022/01/20 01:25:10;;;;;;;19.40;11.17;;;2.70;99.90;;;;;;5053151;28;20644;-70
2022/01/20 01:27:40;;;;;;;17.97;11.60;;;2.70;99.90;;;;;;5052483;28;20260;-69
2022/01/20 01:30:20;;;;;;;18.27;11.53;;;2.80;99.90;;;;;;5052996;28;20309;-69
2022/01/20 01:32:50;;;;;;;18.87;12.17;;;2.80;99.90;;;;;;5052681;28;20198;-70
2022/01/20 01:35:20;;;;;;;19.20;11.83;;;2.80;99.90;;;;;;5053180;28;20209;-70
2022/01/20 01:40:32;;;;;;;19.60;12.13;;;2.80;99.90;;;;;;5045110;28;20181;-69
2022/01/20 01:43:05;;;;;;;16.97;10.97;;;2.80;99.90;;;;;;5053192;28;20741;-70
2022/01/20 01:45:35;;;;;;;18.73;11.03;;;2.90;99.90;;;;;;5053516;28;20221;-70
2022/01/20 01:48:04;;;;;;;19.33;11.10;;;2.90;99.90;;;;;;5053382;28;20214;-70
2022/01/20 01:50:31;;;;;;;19.90;11.20;;;2.90;99.90;;;;;;5051267;28;20397;-70
2022/01/20 01:52:59;;;;;;;16.87;11.40;;;2.90;99.90;;;;;;5053240;28;20659;-69
2022/01/20 01:55:26;;;;;;;20.13;11.97;;;2.90;99.90;;;;;;5053778;28;20206;-70
2022/01/20 01:57:53;;;;;;;17.73;11.53;;;2.80;99.90;;;;;;5053480;28;20230;-70
2022/01/20 02:00:22;;;;;;;21.03;12.97;;;2.90;99.90;;;;;;5051878;28;20206;-69
2022/01/20 02:02:48;;;;;;;18.73;11.90;;;2.90;99.90;;;;;;5040074;28;20208;-71
2022/01/20 02:05:18;;;;;;;17.40;12.57;;;2.80;99.90;;;;;;5052765;28;20663;-69
2022/01/20 02:18:58;;;;;;;21.10;13.73;;;2.70;99.90;;;;;;5051691;28;20209;-70
2022/01/20 02:21:27;;;;;;;22.97;14.00;;;2.70;99.90;;;;;;5052451;28;20218;-70
2022/01/20 02:23:54;;;;;;;20.60;13.53;;;2.60;99.90;;;;;;5052097;28;20738;-71
2022/01/20 02:26:20;;;;;;;22.10;14.23;;;2.60;99.90;;;;;;5051107;28;20679;-69
2022/01/20 02:28:47;;;;;;;23.17;13.67;;;2.50;99.90;;;;;;5050971;28;20585;-70
2022/01/20 02:31:15;;;;;;;21.83;14.20;;;2.50;99.90;;;;;;5049894;28;20229;-70
2022/01/20 02:33:42;;;;;;;23.43;13.57;;;2.40;99.90;;;;;;5051930;28;20870;-70
2022/01/20 02:36:14;;;;;;;20.80;13.23;;;2.40;99.90;;;;;;5039456;28;20211;-70
2022/01/20 02:38:46;;;;;;;19.07;12.97;;;2.40;99.90;;;;;;5051603;28;20202;-69
2022/01/20 02:46:43;;;;;;;22.80;14.33;;;2.40;99.90;;;;;;5051734;28;20293;-70
2022/01/20 02:49:14;;;;;;;21.20;13.37;;;2.30;99.90;;;;;;5051069;28;20621;-70
2022/01/20 02:51:48;;;;;;;21.17;13.33;;;2.30;99.90;;;;;;5050876;28;20212;-69
2022/01/20 02:54:17;;;;;;;21.73;13.93;;;2.30;99.90;;;;;;5055382;28;20208;-69
2022/01/20 02:56:44;;;;;;;22.73;14.33;;;2.20;99.90;;;;;;5055397;28;20229;-70
2022/01/20 02:59:11;;;;;;;20.77;12.90;;;2.20;99.90;;;;;;5049748;28;20600;-69
2022/01/20 03:01:38;;;;;;;22.17;13.83;;;2.30;99.90;;;;;;5054985;28;20213;-69
2022/01/20 03:04:05;;;;;;;20.97;13.37;;;2.20;99.90;;;;;;5054027;28;20213;-69
2022/01/20 03:06:32;;;;;;;21.90;13.87;;;2.20;99.90;;;;;;5054700;28;20216;-69
2022/01/20 03:08:59;;;;;;;22.57;13.20;;;2.20;99.90;;;;;;5054409;28;20210;-70
2022/01/20 03:11:27;;;;;;;24.70;14.03;;;2.20;99.90;;;;;;5049919;28;20241;-69
2022/01/20 03:13:54;;;;;;;19.60;13.63;;;2.20;99.90;;;;;;5050583;28;20305;-70
2022/01/20 03:16:21;;;;;;;24.17;13.70;;;2.20;99.90;;;;;;5053050;28;20205;-70
2022/01/20 03:18:48;;;;;;;20.10;12.90;;;2.20;99.90;;;;;;5054724;28;20204;-70
2022/01/20 03:21:14;;;;;;;19.90;12.97;;;2.20;99.90;;;;;;5055339;28;20289;-70
2022/01/20 03:23:41;;;;;;;18.67;11.33;;;2.20;99.90;;;;;;5055453;28;20209;-69
2022/01/20 03:26:08;;;;;;;19.67;12.87;;;2.20;99.90;;;;;;5055137;28;20738;-69
2022/01/20 03:28:36;;;;;;;19.53;13.07;;;2.20;99.90;;;;;;5046278;28;20272;-69
2022/01/20 03:31:03;;;;;;;20.47;12.67;;;2.20;99.90;;;;;;5055570;28;20281;-70
2022/01/20 03:33:30;;;;;;;19.50;12.97;;;2.20;99.90;;;;;;5055323;28;20202;-70
2022/01/20 03:35:57;;;;;;;17.77;11.43;;;2.20;99.90;;;;;;5050194;28;20646;-70
2022/01/20 03:38:24;;;;;;;17.57;12.53;;;2.20;99.90;;;;;;5044941;28;20212;-69
2022/01/20 03:40:51;;;;;;;20.13;12.20;;;2.10;99.90;;;;;;5054155;28;20208;-70
2022/01/20 03:43:18;;;;;;;19.80;12.53;;;2.10;99.90;;;;;;5054497;28;20206;-69
2022/01/20 03:45:50;;;;;;;16.87;11.67;;;2.10;99.90;;;;;;5054885;28;20202;-70
2022/01/20 03:48:18;;;;;;;19.50;12.27;;;2.10;99.90;;;;;;5047382;28;20510;-70
2022/01/20 03:51:03;;;;;;;17.10;12.03;;;2.10;99.90;;;;;;5047082;28;20226;-70
2022/01/20 03:53:31;;;;;;;18.40;12.27;;;2.10;99.90;;;;;;5039293;28;20976;-69
2022/01/20 03:55:58;;;;;;;20.90;12.83;;;2.10;99.90;;;;;;5039678;28;20203;-70
2022/01/20 03:58:25;;;;;;;15.77;11.57;;;2.10;99.90;;;;;;5040578;28;20202;-70
2022/01/20 04:00:54;;;;;;;18.13;12.33;;;2.10;99.90;;;;;;5040739;28;20201;-70
2022/01/20 04:03:21;;;;;;;18.03;11.80;;;2.10;99.90;;;;;;5042497;28;20260;-69
2022/01/20 04:05:56;;;;;;;16.93;11.67;;;2.10;99.90;;;;;;5042082;28;20209;-70
2022/01/20 04:08:24;;;;;;;15.10;10.73;;;2.10;99.90;;;;;;5038455;28;20685;-70
2022/01/20 04:10:51;;;;;;;19.27;11.27;;;2.10;99.90;;;;;;5043723;28;20223;-70
2022/01/20 04:13:19;;;;;;;17.23;10.93;;;2.10;99.90;;;;;;5039710;28;20700;-69
2022/01/20 04:15:48;;;;;;;16.43;11.63;;;2.20;99.90;;;;;;5035713;28;20717;-71
2022/01/20 04:18:21;;;;;;;15.53;10.50;;;2.20;99.90;;;;;;5044600;28;20214;-70
2022/01/20 04:20:49;;;;;;;15.53;10.63;;;2.20;99.90;;;;;;5054609;28;20240;-70
2022/01/20 04:23:15;;;;;;;16.07;10.80;;;2.20;99.90;;;;;;5054760;28;20214;-69
2022/01/20 04:25:42;;;;;;;16.93;11.03;;;2.20;99.90;;;;;;5054210;28;20300;-69
2022/01/20 04:28:09;;;;;;;14.77;11.03;;;2.20;99.90;;;;;;5053997;28;20202;-70
2022/01/20 04:30:36;;;;;;;14.27;10.07;;;2.20;99.90;;;;;;5045773;28;20257;-71
2022/01/20 04:33:03;;;;;;;16.47;11.40;;;2.20;99.90;;;;;;5054092;28;20535;-69
2022/01/20 04:35:32;;;;;;;14.03;9.53;;;2.20;99.90;;;;;;5052179;28;20205;-70
2022/01/20 04:37:59;;;;;;;15.33;10.73;;;2.30;99.90;;;;;;5053990;28;20261;-70
2022/01/20 04:40:26;;;;;;;12.97;9.70;;;2.30;99.90;;;;;;5053244;28;20216;-69
2022/01/20 04:42:55;;;;;;;15.30;10.37;;;2.30;99.90;;;;;;5053254;28;20245;-71
2022/01/20 04:45:28;;;;;;;15.07;10.10;;;2.40;99.90;;;;;;5045420;28;20214;-69
2022/01/20 04:48:03;;;;;;;14.63;9.93;;;2.30;99.90;;;;;;5048427;28;20285;-69
2022/01/20 04:58:45;;;;;;;15.13;9.17;;;2.40;99.90;;;;;;5051844;28;20274;-68
2022/01/20 05:01:12;;;;;;;15.87;11.00;;;2.40;99.90;;;;;;5052415;28;20387;-70
2022/01/20 05:03:39;;;;;;;14.90;10.03;;;2.50;99.90;;;;;;5053118;28;20659;-70
2022/01/20 05:06:09;;;;;;;12.30;9.50;;;2.50;99.90;;;;;;5053240;28;20261;-70
2022/01/20 05:08:35;;;;;;;12.87;9.40;;;2.50;99.90;;;;;;5051745;28;20373;-70
2022/01/20 05:11:03;;;;;;;15.43;9.90;;;2.50;99.90;;;;;;5052788;28;20608;-70
2022/01/20 05:13:35;;;;;;;15.03;10.20;;;2.50;99.90;;;;;;5052990;28;20202;-70
2022/01/20 05:16:02;;;;;;;14.90;10.10;;;2.60;99.90;;;;;;5052162;28;20198;-69
2022/01/20 05:18:29;;;;;;;13.17;9.50;;;2.60;99.90;;;;;;5044121;28;20212;-70
2022/01/20 05:20:57;;;;;;;13.63;9.33;;;2.60;99.90;;;;;;5053441;28;20664;-70
2022/01/20 05:23:26;;;;;;;15.93;10.67;;;2.60;99.90;;;;;;5052229;28;20209;-70
2022/01/20 05:25:52;;;;;;;16.17;10.30;;;2.60;99.90;;;;;;5052238;28;20654;-69
2022/01/20 05:28:19;;;;;;;15.87;10.27;;;2.60;99.90;;;;;;5052546;28;20221;-69
2022/01/20 05:30:46;;;;;;;21.00;11.20;;;2.60;99.90;;;;;;5052721;28;20741;-70
2022/01/20 05:33:13;;;;;;;19.13;10.07;;;2.60;99.90;;;;;;5052623;28;20210;-70
2022/01/20 05:35:40;;;;;;;12.17;9.50;;;2.60;99.90;;;;;;5051970;28;20202;-69
2022/01/20 05:38:07;;;;;;;13.23;10.13;;;2.60;99.90;;;;;;5051193;28;20202;-70
2022/01/20 05:40:36;;;;;;;15.47;10.47;;;2.60;99.90;;;;;;5051452;28;20583;-70
2022/01/20 05:43:04;;;;;;;15.03;10.53;;;2.60;99.90;;;;;;5050880;28;20198;-69
2022/01/20 05:45:31;;;;;;;14.67;10.10;;;2.70;99.90;;;;;;5051861;28;20210;-69
2022/01/20 05:48:09;;;;;;;14.50;9.67;;;2.70;99.90;;;;;;5051841;28;20241;-70
2022/01/20 05:50:36;;;;;;;16.70;10.17;;;2.70;99.90;;;;;;5051420;28;20575;-70
2022/01/20 05:53:04;;;;;;;14.60;10.50;;;2.70;99.90;;;;;;5051978;28;20216;-69
2022/01/20 05:55:32;;;;;;;15.27;10.10;;;2.70;99.90;;;;;;5050466;28;20244;-69
2022/01/20 05:58:01;;;;;;;10.87;8.00;;;2.70;99.90;;;;;;5051942;28;20231;-70
2022/01/20 06:00:28;;;;;;;8.73;6.17;;;2.70;99.90;;;;;;5048192;28;20225;-70
2022/01/20 06:05:41;;;;;;;7.10;4.50;;;2.60;99.90;;;;;;5051752;28;20747;-70
2022/01/20 06:08:08;;;;;;;5.70;3.47;;;2.50;99.90;;;;;;5051158;28;20212;-70
2022/01/20 06:10:35;;;;;;;7.97;4.00;;;2.40;99.90;;;;;;5051617;28;20301;-71
2022/01/20 06:13:04;;;;;;;5.23;2.73;;;2.40;99.90;;;;;;5051228;28;20589;-71
2022/01/20 06:15:31;;;;;;;4.90;3.00;;;2.30;99.90;;;;;;5051349;28;20216;-70
2022/01/20 06:17:58;;;;;;;7.17;2.93;;;2.30;99.90;;;;;;5051904;28;20201;-71
2022/01/20 06:20:25;;;;;;;14.67;3.17;;;2.30;99.90;;;;;;5043258;28;20209;-71
2022/01/20 06:22:52;;;;;;;5.67;2.50;;;2.20;99.90;;;;;;5052104;28;20217;-71
2022/01/20 06:25:19;;;;;;;4.90;2.50;;;2.30;99.90;;;;;;5052716;28;20217;-70
2022/01/20 06:27:46;;;;;;;4.83;1.93;;;2.20;99.90;;;;;;5050633;28;20208;-70
2022/01/20 06:30:14;;;;;;;3.87;2.00;;;2.20;99.90;;;;;;5049881;28;20213;-69
2022/01/20 06:32:42;;;;;;;7.50;1.90;;;2.20;99.90;;;;;;5050176;28;20202;-69
2022/01/20 06:35:09;;;;;;;3.50;1.80;;;2.20;99.90;;;;;;5052097;28;20248;-70
2022/01/20 06:37:36;;;;;;;5.43;2.07;;;2.20;99.90;;;;;;5051029;28;20600;-70
2022/01/20 06:40:06;;;;;;;4.57;2.07;;;2.20;99.90;;;;;;5051384;28;20206;-70
2022/01/20 06:42:33;;;;;;;2.33;1.43;;;2.10;99.90;;;;;;5051493;28;20217;-71
2022/01/20 06:44:59;;;;;;;3.83;2.10;;;2.10;99.90;;;;;;5042245;28;20659;-70
2022/01/20 06:47:28;;;;;;;3.57;1.60;;;2.10;99.90;;;;;;5052438;28;20210;-71
2022/01/20 06:49:54;;;;;;;5.53;1.60;;;2.10;99.90;;;;;;5051868;28;20252;-70
2022/01/20 06:52:21;;;;;;;8.20;2.13;;;2.10;99.90;;;;;;5051373;28;20225;-70
2022/01/20 06:54:48;;;;;;;4.23;1.70;;;2.10;99.90;;;;;;5051681;28;20293;-70
2022/01/20 06:57:15;;;;;;;3.67;1.70;;;2.00;99.90;;;;;;5052004;28;20607;-71
2022/01/20 06:59:42;;;;;;;6.50;1.97;;;2.00;99.90;;;;;;5050247;28;20208;-70
2022/01/20 07:02:09;;;;;;;4.23;1.67;;;2.10;99.90;;;;;;5050089;28;20202;-71
2022/01/20 07:04:38;;;;;;;5.00;1.70;;;2.10;99.90;;;;;;5051237;28;20655;-71
2022/01/20 07:07:05;;;;;;;2.80;1.53;;;2.10;99.90;;;;;;5050328;28;20513;-72
2022/01/20 07:09:32;;;;;;;6.00;1.57;;;2.10;99.90;;;;;;5050457;28;20238;-72
2022/01/20 07:11:59;;;;;;;4.70;1.80;;;2.10;99.90;;;;;;5050081;28;20356;-72
2022/01/20 07:14:27;;;;;;;7.87;2.00;;;2.10;99.90;;;;;;5049134;28;20210;-70
2022/01/20 07:16:53;;;;;;;3.63;1.40;;;2.00;99.90;;;;;;5050361;28;20754;-71
2022/01/20 07:19:21;;;;;;;5.90;1.70;;;2.00;99.90;;;;;;5050777;28;20241;-71
2022/01/20 07:21:49;;;;;;;6.83;1.77;;;2.00;99.90;;;;;;5051026;28;20486;-71
2022/01/20 07:24:16;;;;;;;6.23;1.60;;;2.00;99.90;;;;;;5051269;28;20218;-71
2022/01/20 07:26:43;;;;;;;7.20;1.80;;;2.00;99.90;;;;;;5051808;28;20300;-72
2022/01/20 07:29:10;;;;;;;5.00;1.97;;;2.00;99.90;;;;;;5051398;28;20212;-70
2022/01/20 07:31:37;;;;;;;5.70;1.67;;;2.00;99.90;;;;;;5051816;28;20252;-73
2022/01/20 07:34:04;;;;;;;6.23;1.83;;;2.10;99.90;;;;;;5049406;28;20886;-73
2022/01/20 07:36:31;;;;;;;5.40;1.93;;;2.10;99.90;;;;;;5050268;28;20289;-71
2022/01/20 07:39:00;;;;;;;7.30;1.90;;;2.10;99.90;;;;;;5051725;28;20202;-75
2022/01/20 07:41:27;;;;;;;6.83;1.80;;;2.10;99.90;;;;;;5054568;28;20270;-73
2022/01/20 07:43:54;;;;;;;7.53;2.30;;;2.10;99.90;;;;;;5054508;28;20237;-75
2022/01/20 07:46:21;;;;;;;5.50;2.47;;;2.10;99.90;;;;;;5055299;28;20209;-74
2022/01/20 07:48:48;;;;;;;4.73;1.90;;;2.10;99.90;;;;;;5054082;28;20212;-72
2022/01/20 07:51:16;;;;;;;5.23;1.63;;;2.10;99.90;;;;;;5054553;28;20321;-72
2022/01/20 07:53:43;;;;;;;6.23;2.43;;;2.20;99.90;;;;;;5041281;28;20201;-74
2022/01/20 07:56:11;;;;;;;5.30;1.70;;;2.20;99.90;;;;;;5053069;28;20638;-73
2022/01/20 07:58:38;;;;;;;7.67;2.13;;;2.20;99.90;;;;;;5051862;28;20206;-74
2022/01/20 08:01:07;;;;;;;5.37;2.03;;;2.20;99.90;;;;;;5049460;28;20202;-73
2022/01/20 08:03:34;;;;;;;4.97;1.53;;;2.40;99.90;;;;;;5047673;28;20295;-73
2022/01/20 08:06:01;;;;;;;7.00;1.67;;;2.40;99.90;;;;;;5053635;28;20233;-74
2022/01/20 08:08:28;;;;;;;6.03;1.70;;;2.70;99.90;;;;;;5053168;28;20726;-74
2022/01/20 08:10:55;;;;;;;8.00;2.07;;;2.80;99.90;;;;;;5054335;28;20288;-74
2022/01/20 08:13:23;;;;;;;6.03;2.03;;;3.00;99.90;;;;;;5053350;28;20233;-73
2022/01/20 08:15:50;;;;;;;8.97;1.70;;;3.20;99.90;;;;;;5053168;28;20304;-73
2022/01/20 08:18:17;;;;;;;5.00;1.67;;;3.30;99.90;;;;;;5052766;28;20202;-73
2022/01/20 08:20:44;;;;;;;5.53;1.83;;;3.40;99.90;;;;;;5053161;28;20206;-70
2022/01/20 08:23:11;;;;;;;6.93;2.10;;;3.60;99.90;;;;;;5053568;28;20263;-74
2022/01/20 08:25:38;;;;;;;4.37;1.93;;;3.70;99.90;;;;;;5051850;28;20406;-73
2022/01/20 08:28:05;;;;;;;6.67;1.73;;;3.70;99.90;;;;;;5052063;28;20198;-71
2022/01/20 08:30:34;;;;;;;7.30;2.20;;;3.70;99.90;;;;;;5057514;28;20797;-70
2022/01/20 08:33:01;;;;;;;2.00;1.40;;;3.80;99.90;;;;;;5059837;28;20309;-75
2022/01/20 08:35:32;;;;;;;6.00;1.70;;;3.90;99.90;;;;;;5053898;28;20233;-77
2022/01/20 08:38:00;;;;;;;2.67;2.23;;;4.00;99.90;;;;;;5054276;28;20204;-71
2022/01/20 08:40:28;;;;;;;3.17;1.53;;;4.00;99.90;;;;;;5053574;28;20209;-75
2022/01/20 08:42:56;;;;;;;3.50;1.70;;;4.20;99.90;;;;;;5054389;28;20308;-76
2022/01/20 08:45:24;;;;;;;4.93;1.90;;;4.40;99.90;;;;;;5054154;28;20232;-75
2022/01/20 08:47:55;;;;;;;7.13;1.73;;;4.60;99.90;;;;;;5049462;28;20244;-74
2022/01/20 08:50:23;;;;;;;4.20;1.40;;;4.80;99.90;;;;;;5051750;28;20241;-73
2022/01/20 08:52:50;;;;;;;6.53;1.90;;;4.90;99.90;;;;;;5054708;28;20234;-73
2022/01/20 08:55:17;;;;;;;5.37;1.77;;;5.10;99.90;;;;;;5054531;28;20216;-74
2022/01/20 08:57:44;;;;;;;4.23;2.00;;;5.20;99.90;;;;;;5054511;28;20234;-72
2022/01/20 09:00:13;;;;;;;4.83;1.70;;;5.50;99.90;;;;;;5052283;28;20201;-73
2022/01/20 09:02:40;;;;;;;7.00;2.30;;;5.70;99.90;;;;;;5052927;28;20579;-72
2022/01/20 09:05:09;;;;;;;5.13;2.03;;;5.60;99.90;;;;;;5053426;28;20235;-72
2022/01/20 09:07:36;;;;;;;5.07;2.10;;;5.50;99.90;;;;;;5052287;28;20766;-72
2022/01/20 09:10:07;;;;;;;4.87;2.10;;;5.30;99.90;;;;;;5053044;28;20202;-72
2022/01/20 09:15:28;;;;;;;5.13;1.93;;;4.80;99.90;;;;;;5054347;28;20299;-71
2022/01/20 09:17:56;;;;;;;7.27;2.30;;;4.60;99.90;;;;;;5051378;28;20198;-73
2022/01/20 09:20:25;;;;;;;7.50;2.17;;;4.50;99.90;;;;;;5045513;28;20210;-69
2022/01/20 09:22:54;;;;;;;5.70;2.83;;;4.40;99.90;;;;;;5051303;28;20443;-69
2022/01/20 09:25:21;;;;;;;3.07;1.80;;;4.30;99.90;;;;;;5051669;28;20214;-70
2022/01/20 09:27:50;;;;;;;3.87;1.57;;;4.20;99.90;;;;;;5051059;28;20648;-72
2022/01/20 09:30:19;;;;;;;6.87;1.70;;;4.20;99.90;;;;;;5050497;28;20217;-69
2022/01/20 09:32:57;;;;;;;6.33;2.17;;;4.10;99.90;;;;;;5051158;28;20214;-72
2022/01/20 09:35:28;;;;;;;5.67;1.83;;;4.00;99.90;;;;;;5050687;28;20202;-71
2022/01/20 09:37:55;;;;;;;5.37;2.10;;;3.90;99.90;;;;;;5049377;28;20647;-71
2022/01/20 09:40:23;;;;;;;7.43;1.63;;;3.80;99.90;;;;;;5050008;28;20305;-70
2022/01/20 09:42:50;;;;;;;5.43;1.70;;;3.70;99.90;;;;;;5051456;28;20213;-75
2022/01/20 09:45:17;;;;;;;4.60;1.97;;;3.60;99.90;;;;;;5052128;28;20635;-71
2022/01/20 09:47:45;;;;;;;3.37;1.50;;;3.50;99.90;;;;;;5049742;28;20632;-74
2022/01/20 09:50:13;;;;;;;5.77;1.20;;;3.40;99.90;;;;;;5052568;28;20496;-71
2022/01/20 09:52:42;;;;;;;5.90;1.67;;;3.40;99.90;;;;;;5052182;28;20217;-71
2022/01/20 09:55:10;;;;;;;4.80;1.70;;;3.20;99.90;;;;;;5052236;28;20202;-72
2022/01/20 09:57:37;;;;;;;9.53;1.97;;;3.10;99.90;;;;;;5045550;28;20230;-72
2022/01/20 10:00:08;;;;;;;3.10;1.53;;;3.00;99.90;;;;;;5050684;28;20206;-72
2022/01/20 10:02:35;;;;;;;4.37;1.87;;;2.90;99.90;;;;;;5049334;28;20205;-71
2022/01/20 10:05:02;;;;;;;2.70;1.47;;;2.90;99.90;;;;;;5050716;28;20205;-72
2022/01/20 10:07:33;;;;;;;3.83;1.80;;;2.80;99.90;;;;;;5053813;28;20613;-71
2022/01/20 10:10:02;;;;;;;6.10;2.07;;;2.80;99.90;;;;;;5050101;28;20206;-72
2022/01/20 10:12:31;;;;;;;6.30;1.57;;;3.10;99.90;;;;;;5051501;28;20349;-72
2022/01/20 10:14:59;;;;;;;4.77;1.70;;;3.90;99.90;;;;;;5045813;28;20198;-72
2022/01/20 10:17:28;;;;;;;5.03;1.67;;;4.30;99.90;;;;;;5050145;28;20234;-71
2022/01/20 10:20:00;;;;;;;6.00;1.90;;;4.40;99.90;;;;;;5048701;28;20202;-72
2022/01/20 10:22:28;;;;;;;6.87;1.77;;;4.30;99.90;;;;;;5049651;28;20194;-71
2022/01/20 10:25:01;;;;;;;3.87;1.67;;;4.30;99.90;;;;;;5050303;28;20206;-71
2022/01/20 10:27:31;;;;;;;3.63;1.60;;;4.40;99.90;;;;;;5050805;28;20237;-71
2022/01/20 10:30:00;;;;;;;4.73;1.80;;;4.60;99.90;;;;;;5050008;28;20215;-71
2022/01/20 10:32:27;;;;;;;5.33;1.57;;;4.50;99.90;;;;;;5049463;28;20287;-71
2022/01/20 10:35:05;;;;;;;5.30;2.20;;;4.60;99.90;;;;;;5046130;28;20447;-71
2022/01/20 10:37:32;;;;;;;3.50;1.40;;;4.80;99.90;;;;;;5051704;28;20302;-74
2022/01/20 10:40:07;;;;;;;3.63;1.87;;;5.10;99.90;;;;;;5048576;28;20249;-72
2022/01/20 10:42:40;;;;;;;7.07;1.80;;;5.30;98.40;;;;;;5049143;28;20204;-72
2022/01/20 10:45:09;;;;;;;2.80;1.33;;;5.20;97.00;;;;;;5048183;28;20202;-71
2022/01/20 10:47:39;;;;;;;4.07;2.10;;;5.10;95.90;;;;;;5051670;28;20208;-73
2022/01/20 10:50:11;;;;;;;4.20;1.67;;;5.30;99.90;;;;;;5051499;28;20305;-74
2022/01/20 10:52:40;;;;;;;2.93;1.20;;;6.50;99.90;;;;;;5045278;28;20260;-74
2022/01/20 10:55:18;;;;;;;4.10;1.40;;;7.00;93.50;;;;;;5050744;28;20213;-72
2022/01/20 10:57:46;;;;;;;4.03;1.83;;;6.90;87.80;;;;;;5051883;28;20248;-74
2022/01/20 11:00:18;;;;;;;2.83;1.57;;;6.80;86.40;;;;;;5050779;28;20237;-72
2022/01/20 11:02:49;;;;;;;3.50;1.53;;;6.40;83.30;;;;;;5049425;28;20206;-72
2022/01/20 11:05:17;;;;;;;9.83;1.73;;;5.90;83.50;;;;;;5046041;28;20305;-71
2022/01/20 11:07:44;;;;;;;4.00;1.30;;;5.40;84.00;;;;;;5044000;28;20569;-71
2022/01/20 11:10:11;;;;;;;5.50;1.43;;;4.90;84.40;;;;;;5045917;28;20210;-72
2022/01/20 11:12:39;;;;;;;4.07;1.87;;;4.50;86.40;;;;;;5049821;28;20664;-72
2022/01/20 11:15:10;;;;;;;3.53;1.40;;;4.10;88.00;;;;;;5058557;28;20563;-73
2022/01/20 11:17:40;;;;;;;6.57;1.80;;;3.80;89.60;;;;;;5053905;28;20210;-74
2022/01/20 11:20:10;;;;;;;3.20;1.50;;;3.50;90.60;;;;;;5053754;28;20579;-70
2022/01/20 11:22:38;;;;;;;3.30;1.50;;;3.40;91.80;;;;;;5052501;28;20217;-72
2022/01/20 11:25:08;;;;;;;2.33;1.30;;;3.40;92.20;;;;;;5056527;28;20206;-71
2022/01/20 11:27:39;;;;;;;3.50;1.57;;;3.30;92.40;;;;;;5051325;28;20209;-70
2022/01/20 11:30:17;;;;;;;6.00;1.77;;;3.30;93.00;;;;;;5055638;28;20204;-70
2022/01/20 11:32:57;;;;;;;3.17;1.40;;;3.40;93.80;;;;;;5055382;28;20213;-72
2022/01/20 11:35:23;;;;;;;5.30;1.60;;;3.40;93.90;;;;;;5050153;28;20220;-71
2022/01/20 11:37:57;;;;;;;4.17;1.47;;;3.30;94.30;;;;;;5050798;28;20206;-71
2022/01/20 11:40:25;;;;;;;4.97;1.67;;;3.30;94.70;;;;;;5049713;28;20673;-72
2022/01/20 11:43:03;;;;;;;4.80;1.43;;;3.30;95.10;;;;;;5050925;28;20202;-71
2022/01/20 11:45:33;;;;;;;1.63;1.00;;;3.40;95.30;;;;;;5053131;28;20205;-71
2022/01/20 11:48:12;;;;;;;3.23;1.30;;;3.40;95.00;;;;;;5047976;28;20198;-71
2022/01/20 11:50:40;;;;;;;3.13;0.90;;;3.40;95.10;;;;;;5051741;28;20206;-71
2022/01/20 11:53:14;;;;;;;2.37;1.00;;;3.40;95.70;;;;;;5045547;28;20240;-72
2022/01/20 11:55:47;;;;;;;1.40;0.93;;;3.40;96.40;;;;;;5051981;28;20563;-72
2022/01/20 11:58:16;;;;;;;1.83;0.80;;;3.30;96.70;;;;;;5044822;28;20210;-71
2022/01/20 12:00:44;;;;;;;1.67;1.00;;;3.10;97.50;;;;;;5047754;28;20208;-72
2022/01/20 12:03:14;;;;;;;3.63;0.83;;;2.90;98.40;;;;;;5052485;28;20213;-71
2022/01/20 12:05:42;;;;;;;4.13;1.20;;;2.70;99.30;;;;;;5051272;28;20898;-72
2022/01/20 12:08:11;;;;;;;3.10;1.47;;;2.40;99.90;;;;;;5040008;28;20370;-72
2022/01/20 12:10:40;;;;;;;4.60;1.23;;;2.20;99.90;;;;;;5036813;28;20203;-71
2022/01/20 12:13:09;;;;;;;1.83;1.40;;;2.00;99.90;;;;;;5033109;28;20235;-71
2022/01/20 12:15:46;;;;;;;1.27;0.90;;;1.90;99.90;;;;;;5047653;28;20293;-71
2022/01/20 12:18:15;;;;;;;2.10;0.97;;;1.80;99.90;;;;;;5052711;28;20324;-70
2022/01/20 12:20:42;;;;;;;2.37;1.17;;;1.70;99.90;;;;;;5052408;28;20214;-71
2022/01/20 12:23:09;;;;;;;3.30;0.83;;;1.40;99.90;;;;;;5053220;28;20580;-70
2022/01/20 12:25:37;;;;;;;2.43;1.57;;;1.60;99.90;;;;;;5053379;28;20229;-72
2022/01/20 12:28:06;;;;;;;2.17;1.03;;;1.60;99.90;;;;;;5053404;28;20302;-71
2022/01/20 12:30:33;;;;;;;1.83;1.00;;;1.60;99.90;;;;;;5054520;28;20726;-71
2022/01/20 12:33:03;;;;;;;3.97;0.87;;;1.70;99.90;;;;;;5054162;28;20213;-71
2022/01/20 12:35:41;;;;;;;5.20;1.33;;;1.70;99.90;;;;;;5053657;28;20202;-71
2022/01/20 12:38:21;;;;;;;1.90;0.80;;;1.80;99.90;;;;;;5054283;28;20217;-72
2022/01/20 12:40:49;;;;;;;3.83;1.30;;;1.80;99.90;;;;;;5047803;28;20260;-72
2022/01/20 12:43:16;;;;;;;3.17;2.27;;;1.80;99.90;;;;;;5048013;28;20199;-72
2022/01/20 12:45:57;;;;;;;2.73;1.30;;;1.80;99.90;;;;;;5038337;28;20577;-73
2022/01/20 12:48:24;;;;;;;3.67;1.60;;;1.90;99.90;;;;;;5044308;28;20305;-71
2022/01/20 12:51:01;;;;;;;2.90;1.40;;;1.90;99.90;;;;;;5038420;28;20629;-72
2022/01/20 12:53:37;;;;;;;4.20;1.50;;;1.90;99.90;;;;;;5040091;28;20213;-72
2022/01/20 12:56:05;;;;;;;2.07;1.30;;;1.80;99.90;;;;;;5040885;28;20202;-70
2022/01/20 12:58:32;;;;;;;2.60;1.87;;;1.80;99.90;;;;;;5040735;28;20210;-72
2022/01/20 13:01:01;;;;;;;1.83;0.90;;;1.90;99.90;;;;;;5036901;28;20206;-72
2022/01/20 13:03:38;;;;;;;4.83;1.30;;;1.80;99.90;;;;;;5034890;28;20207;-72
2022/01/20 13:06:11;;;;;;;4.50;1.20;;;1.80;99.90;;;;;;5038393;28;20202;-70
2022/01/20 13:08:41;;;;;;;4.63;1.60;;;1.80;99.80;;;;;;5038361;28;20293;-72
2022/01/20 13:11:14;;;;;;;2.33;1.20;;;1.70;99.50;;;;;;5039489;28;20214;-72
2022/01/20 13:13:52;;;;;;;3.60;1.10;;;1.80;99.70;;;;;;5038208;28;20226;-71
2022/01/20 13:16:18;;;;;;;3.60;1.83;;;1.80;99.40;;;;;;5048872;28;20193;-72
2022/01/20 13:18:53;;;;;;;2.37;0.87;;;1.80;99.40;;;;;;5054935;28;20292;-72
2022/01/20 13:21:25;;;;;;;2.40;1.30;;;1.80;99.40;;;;;;5045026;28;20212;-72
2022/01/20 13:23:58;;;;;;;2.50;1.40;;;1.80;99.40;;;;;;5053188;28;20194;-71
2022/01/20 13:26:26;;;;;;;3.13;1.40;;;1.80;99.80;;;;;;5051316;28;20656;-72
2022/01/20 13:29:04;;;;;;;2.90;1.53;;;1.60;99.90;;;;;;5052670;28;20638;-72
2022/01/20 13:31:32;;;;;;;4.57;1.43;;;1.50;99.90;;;;;;5050327;28;20312;-72
2022/01/20 13:34:08;;;;;;;2.13;1.40;;;1.30;99.90;;;;;;5051859;28;20218;-70
2022/01/20 13:36:41;;;;;;;4.60;1.90;;;1.10;99.90;;;;;;5048830;28;20336;-70
2022/01/20 13:39:08;;;;;;;4.70;1.83;;;1.10;99.90;;;;;;5052491;28;20304;-70
2022/01/20 13:41:35;;;;;;;3.13;1.30;;;0.90;99.90;;;;;;5051186;28;20202;-68
2022/01/20 13:47:03;;;;;;;7.27;2.17;;;0.60;99.90;;;;;;5047165;28;20197;-69
2022/01/20 13:49:30;;;;;;;8.00;2.23;;;0.40;99.90;;;;;;5043988;28;20377;-70
2022/01/20 13:52:06;;;;;;;3.93;1.80;;;0.30;99.90;;;;;;5052619;28;20198;-68
2022/01/20 13:54:40;;;;;;;5.00;2.03;;;0.20;99.90;;;;;;5047713;28;20221;-70
2022/01/20 13:57:08;;;;;;;4.23;2.10;;;0.20;99.90;;;;;;5051227;28;20765;-68
2022/01/20 13:59:46;;;;;;;4.20;2.00;;;0.10;99.90;;;;;;5050085;28;20214;-70
2022/01/20 14:02:13;;;;;;;4.03;1.80;;;0.10;99.90;;;;;;5050479;28;20892;-70
2022/01/20 14:04:40;;;;;;;7.40;2.27;;;0.10;99.90;;;;;;5050643;28;20573;-68